createdAt,value
2023-05-24T00:01:26.259Z,12.79
2023-05-24T00:02:58.544Z,12.76
2023-05-24T00:04:30.859Z,12.75
2023-05-24T00:06:03.098Z,12.74
2023-05-24T00:07:35.255Z,12.71
2023-05-24T00:09:07.850Z,12.70
2023-05-24T00:10:40.020Z,12.67
2023-05-24T00:12:12.316Z,12.63
2023-05-24T00:13:44.537Z,12.61
2023-05-24T00:15:16.590Z,12.60
2023-05-24T00:16:49.892Z,12.56
2023-05-24T00:18:22.011Z,12.59
2023-05-24T00:19:54.308Z,12.52
2023-05-24T00:21:26.550Z,12.48
2023-05-24T00:22:58.806Z,12.45
2023-05-24T00:24:30.988Z,12.43
2023-05-24T00:26:04.302Z,12.42
2023-05-24T00:27:37.845Z,12.37
2023-05-24T00:29:10.068Z,12.33
2023-05-24T00:30:42.484Z,12.31
2023-05-24T00:32:15.010Z,12.30
2023-05-24T00:33:47.291Z,12.27
2023-05-24T00:35:19.542Z,12.23
2023-05-24T00:36:51.924Z,12.22
2023-05-24T00:38:27.669Z,12.20
2023-05-24T00:40:00.049Z,12.19
2023-05-24T00:41:32.296Z,12.16
2023-05-24T00:43:04.471Z,12.13
2023-05-24T00:44:36.641Z,12.12
2023-05-24T00:47:48.540Z,12.05
2023-05-24T00:49:21.002Z,12.03
2023-05-24T00:50:53.169Z,12.02
2023-05-24T00:52:25.473Z,12.01
2023-05-24T00:53:57.702Z,11.97
2023-05-24T00:55:30.562Z,11.97
2023-05-24T00:57:02.689Z,11.94
2023-05-24T00:58:34.774Z,11.90
2023-05-24T01:00:08.549Z,11.91
2023-05-24T01:01:42.249Z,11.88
2023-05-24T01:03:14.959Z,11.86
2023-05-24T01:04:49.348Z,11.85
2023-05-24T01:06:22.002Z,11.81
2023-05-24T01:08:12.165Z,11.88
2023-05-24T01:09:49.967Z,11.85
2023-05-24T01:11:46.842Z,11.89
2023-05-24T01:13:28.701Z,11.88
2023-05-24T01:15:56.200Z,11.90
2023-05-24T01:17:46.777Z,11.92
2023-05-24T01:20:07.279Z,11.98
2023-05-24T01:22:02.322Z,11.98
2023-05-24T01:23:52.670Z,11.92
2023-05-24T01:25:37.701Z,11.95
2023-05-24T01:27:12.883Z,11.94
2023-05-24T01:28:45.785Z,11.92
2023-05-24T01:30:21.401Z,11.88
2023-05-24T01:31:54.040Z,11.82
2023-05-24T01:33:26.397Z,11.77
2023-05-24T01:34:58.508Z,11.71
2023-05-24T01:36:30.646Z,11.68
2023-05-24T01:38:02.778Z,11.69
2023-05-24T01:39:34.983Z,11.67
2023-05-24T01:41:24.023Z,11.66
2023-05-24T01:43:19.322Z,11.64
2023-05-24T01:44:56.628Z,11.63
2023-05-24T01:46:39.104Z,11.64
2023-05-24T01:48:20.195Z,11.63
2023-05-24T01:49:55.479Z,11.65
2023-05-24T01:51:33.966Z,11.64
2023-05-24T01:53:10.292Z,11.64
2023-05-24T01:54:46.292Z,11.63
2023-05-24T01:56:20.828Z,11.60
2023-05-24T01:57:54.970Z,11.57
2023-05-24T01:59:29.374Z,11.53
2023-05-24T02:01:02.569Z,11.55
2023-05-24T02:02:34.978Z,11.51
2023-05-24T02:04:07.853Z,11.51
2023-05-24T02:05:39.917Z,11.44
2023-05-24T02:07:12.111Z,11.44
2023-05-24T02:08:44.236Z,11.43
2023-05-24T02:10:16.390Z,11.39
2023-05-24T02:11:48.440Z,11.40
2023-05-24T02:13:20.737Z,11.37
2023-05-24T02:14:52.810Z,11.37
2023-05-24T02:16:27.061Z,11.33
2023-05-24T02:18:01.622Z,11.32
2023-05-24T02:19:35.380Z,11.31
2023-05-24T02:21:07.687Z,11.34
2023-05-24T02:22:40.125Z,11.34
2023-05-24T02:24:12.977Z,11.35
2023-05-24T02:25:45.306Z,11.31
2023-05-24T02:27:17.528Z,11.28
2023-05-24T02:28:49.840Z,11.27
2023-05-24T02:30:21.965Z,11.28
2023-05-24T02:31:56.838Z,11.29
2023-05-24T02:33:30.276Z,11.34
2023-05-24T02:35:05.288Z,11.38
2023-05-24T02:36:37.900Z,11.29
2023-05-24T02:38:10.399Z,11.24
2023-05-24T02:39:42.906Z,11.20
2023-05-24T02:41:18.516Z,11.16
2023-05-24T02:42:50.875Z,11.13
2023-05-24T02:44:22.941Z,11.09
2023-05-24T02:45:55.221Z,11.08
2023-05-24T02:47:27.577Z,11.05
2023-05-24T02:49:00.128Z,11.06
2023-05-24T02:50:32.468Z,11.02
2023-05-24T02:52:04.969Z,11.01
2023-05-24T02:53:37.169Z,11.00
2023-05-24T02:55:10.118Z,11.00
2023-05-24T02:56:42.588Z,11.03
2023-05-24T02:58:14.789Z,10.97
2023-05-24T02:59:47.017Z,10.95
2023-05-24T03:01:20.208Z,10.94
2023-05-24T03:02:55.875Z,10.89
2023-05-24T03:04:28.093Z,10.89
2023-05-24T03:06:00.266Z,10.86
2023-05-24T03:07:32.440Z,10.85
2023-05-24T03:09:04.674Z,10.86
2023-05-24T03:10:36.931Z,10.85
2023-05-24T03:12:09.323Z,10.85
2023-05-24T03:13:41.579Z,10.80
2023-05-24T03:15:13.797Z,10.85
2023-05-24T03:16:46.528Z,10.86
2023-05-24T03:18:18.690Z,10.88
2023-05-24T03:19:51.498Z,10.88
2023-05-24T03:21:23.987Z,10.88
2023-05-24T03:22:56.561Z,10.91
2023-05-24T03:24:28.743Z,10.90
2023-05-24T03:26:01.013Z,10.90
2023-05-24T03:27:33.173Z,10.92
2023-05-24T03:29:05.379Z,10.89
2023-05-24T03:30:37.501Z,10.94
2023-05-24T03:32:09.716Z,10.95
2023-05-24T03:33:42.025Z,10.93
2023-05-24T03:35:14.425Z,10.99
2023-05-24T03:36:46.692Z,11.02
2023-05-24T03:38:18.875Z,11.08
2023-05-24T03:41:23.104Z,11.17
2023-05-24T03:42:55.340Z,11.16
2023-05-24T03:44:27.572Z,11.16
2023-05-24T03:45:59.925Z,11.17
2023-05-24T03:47:32.204Z,11.18
2023-05-24T03:49:04.535Z,11.18
2023-05-24T03:50:36.859Z,11.19
2023-05-24T03:52:08.994Z,11.17
2023-05-24T03:53:41.227Z,11.21
2023-05-24T03:55:15.436Z,11.21
2023-05-24T03:56:47.700Z,11.21
2023-05-24T03:58:19.847Z,11.20
2023-05-24T03:59:52.063Z,11.23
2023-05-24T04:01:33.171Z,11.24
2023-05-24T04:03:07.327Z,11.25
2023-05-24T04:04:39.756Z,11.30
2023-05-24T04:06:12.607Z,11.36
2023-05-24T04:07:46.773Z,11.39
2023-05-24T04:09:19.057Z,11.44
2023-05-24T04:10:51.198Z,11.49
2023-05-24T04:12:23.405Z,11.54
2023-05-24T04:13:56.526Z,11.61
2023-05-24T04:15:28.769Z,11.63
2023-05-24T04:17:02.684Z,11.70
2023-05-24T04:18:37.942Z,11.78
2023-05-24T04:20:11.714Z,11.86
2023-05-24T04:21:43.931Z,11.92
2023-05-24T04:23:16.108Z,11.98
2023-05-24T04:24:48.357Z,12.07
2023-05-24T04:26:21.672Z,12.13
2023-05-24T04:27:54.016Z,12.20
2023-05-24T04:29:28.223Z,12.28
2023-05-24T04:31:00.592Z,12.37
2023-05-24T04:32:32.852Z,12.43
2023-05-24T04:34:07.996Z,12.52
2023-05-24T04:35:41.210Z,12.63
2023-05-24T04:37:17.692Z,12.75
2023-05-24T04:38:50.879Z,12.88
2023-05-24T04:40:23.358Z,12.98
2023-05-24T04:41:56.872Z,13.10
2023-05-24T04:43:29.269Z,13.22
2023-05-24T04:45:01.618Z,13.32
2023-05-24T04:46:36.543Z,13.43
2023-05-24T04:48:08.837Z,13.53
2023-05-24T04:49:41.047Z,13.64
2023-05-24T04:51:13.365Z,13.75
2023-05-24T04:52:45.601Z,13.87
2023-05-24T04:54:18.649Z,13.99
2023-05-24T04:55:51.542Z,14.10
2023-05-24T04:57:26.822Z,14.20
2023-05-24T05:00:30.760Z,14.41
2023-05-24T05:02:03.046Z,14.54
2023-05-24T05:03:35.320Z,14.67
2023-05-24T05:05:08.028Z,14.81
2023-05-24T05:06:40.989Z,14.89
2023-05-24T05:08:14.461Z,14.99
2023-05-24T05:09:47.034Z,15.11
2023-05-24T05:11:19.619Z,15.20
2023-05-24T05:12:51.838Z,15.28
2023-05-24T05:14:24.235Z,15.34
2023-05-24T05:15:56.366Z,15.45
2023-05-24T05:17:28.481Z,15.55
2023-05-24T05:19:00.633Z,15.66
2023-05-24T05:20:32.785Z,15.76
2023-05-24T05:22:05.437Z,15.86
2023-05-24T05:23:40.040Z,15.96
2023-05-24T05:25:12.164Z,16.06
2023-05-24T05:26:44.338Z,16.14
2023-05-24T05:28:17.969Z,16.20
2023-05-24T05:29:53.271Z,16.29
2023-05-24T05:31:25.826Z,16.38
2023-05-24T05:34:34.514Z,16.49
2023-05-24T05:36:07.149Z,16.60
2023-05-24T05:37:39.333Z,16.65
2023-05-24T05:39:11.434Z,16.72
2023-05-24T05:40:43.972Z,16.77
2023-05-24T05:42:16.268Z,16.83
2023-05-24T05:43:48.511Z,16.87
2023-05-24T05:45:20.963Z,16.96
2023-05-24T05:46:53.174Z,17.01
2023-05-24T05:48:26.258Z,17.09
2023-05-24T05:49:58.391Z,17.14
2023-05-24T05:51:30.819Z,17.18
2023-05-24T05:53:03.019Z,17.22
2023-05-24T05:54:35.373Z,17.30
2023-05-24T05:56:07.727Z,17.37
2023-05-24T05:57:39.849Z,17.43
2023-05-24T05:59:12.722Z,17.48
2023-05-24T06:00:44.961Z,17.52
2023-05-24T06:02:19.284Z,17.57
2023-05-24T06:03:52.523Z,17.64
2023-05-24T06:05:24.757Z,17.68
2023-05-24T06:06:57.441Z,17.73
2023-05-24T06:08:31.310Z,17.78
2023-05-24T06:10:03.986Z,17.85
2023-05-24T06:11:36.211Z,17.86
2023-05-24T06:13:08.524Z,17.97
2023-05-24T06:14:41.009Z,18.04
2023-05-24T06:16:13.311Z,18.09
2023-05-24T06:17:48.432Z,18.16
2023-05-24T06:19:21.464Z,18.23
2023-05-24T06:20:53.679Z,18.26
2023-05-24T06:22:25.843Z,18.33
2023-05-24T06:23:58.654Z,18.39
2023-05-24T06:25:31.430Z,18.46
2023-05-24T06:27:05.409Z,18.54
2023-05-24T06:28:38.067Z,18.62
2023-05-24T06:30:10.719Z,18.68
2023-05-24T06:31:43.966Z,18.75
2023-05-24T06:35:15.763Z,18.93
2023-05-24T06:36:49.003Z,19.03
2023-05-24T06:38:21.364Z,19.15
2023-05-24T06:39:53.513Z,19.14
2023-05-24T06:41:25.628Z,19.22
2023-05-24T06:42:59.249Z,19.27
2023-05-24T06:44:34.791Z,19.34
2023-05-24T06:46:07.954Z,19.46
2023-05-24T06:47:40.298Z,19.54
2023-05-24T06:49:13.472Z,19.61
2023-05-24T06:50:46.376Z,19.70
2023-05-24T06:52:22.337Z,19.83
2023-05-24T06:53:54.580Z,19.86
2023-05-24T06:55:27.084Z,19.92
2023-05-24T06:56:59.449Z,19.97
2023-05-24T07:03:38.106Z,20.17
2023-05-24T07:05:13.650Z,20.21
2023-05-24T07:06:46.410Z,20.27
2023-05-24T07:08:18.817Z,20.34
2023-05-24T07:09:51.311Z,20.34
2023-05-24T07:11:23.614Z,20.42
2023-05-24T07:12:56.129Z,20.48
2023-05-24T07:14:28.651Z,20.54
2023-05-24T07:16:01.007Z,20.59
2023-05-24T07:17:33.461Z,20.64
2023-05-24T07:21:06.021Z,20.60
2023-05-24T07:22:38.313Z,20.74
2023-05-24T07:24:10.639Z,20.81
2023-05-24T07:25:42.989Z,20.89
2023-05-24T07:27:15.201Z,20.92
2023-05-24T07:28:47.560Z,20.96
2023-05-24T07:30:31.000Z,21.01
2023-05-24T07:32:04.554Z,21.02
2023-05-24T07:33:38.295Z,21.09
2023-05-24T07:35:13.499Z,21.17
2023-05-24T07:36:50.912Z,21.12
2023-05-24T07:38:23.308Z,21.21
2023-05-24T07:43:13.461Z,21.37
2023-05-24T07:44:45.634Z,21.44
2023-05-24T07:46:17.919Z,21.50
2023-05-24T07:51:16.041Z,21.66
2023-05-24T07:52:48.827Z,21.69
2023-05-24T07:54:21.979Z,21.76
2023-05-24T07:55:54.249Z,21.76
2023-05-24T07:57:26.487Z,21.79
2023-05-24T07:59:04.759Z,21.80
2023-05-24T08:00:37.268Z,21.83
2023-05-24T08:02:12.083Z,21.91
2023-05-24T08:03:44.529Z,21.97
2023-05-24T08:05:17.316Z,22.00
2023-05-24T08:06:49.610Z,22.05
2023-05-24T08:08:22.025Z,22.06
2023-05-24T08:09:54.342Z,22.12
2023-05-24T08:11:27.068Z,22.14
2023-05-24T08:12:59.419Z,22.21
2023-05-24T08:16:08.751Z,22.31
2023-05-24T08:17:41.367Z,22.35
2023-05-24T08:19:14.938Z,22.36
2023-05-24T08:20:47.248Z,22.43
2023-05-24T08:22:20.282Z,22.48
2023-05-24T08:23:52.643Z,22.49
2023-05-24T08:25:24.935Z,22.52
2023-05-24T08:26:57.454Z,22.56
2023-05-24T08:28:30.031Z,22.56
2023-05-24T08:30:02.702Z,22.60
2023-05-24T08:31:35.006Z,22.71
2023-05-24T08:33:07.776Z,22.78
2023-05-24T08:34:40.055Z,22.79
2023-05-24T08:36:12.626Z,22.86
2023-05-24T08:37:44.897Z,22.87
2023-05-24T08:39:17.255Z,22.91
2023-05-24T08:40:49.490Z,22.96
2023-05-24T08:42:22.258Z,23.01
2023-05-24T08:43:54.696Z,23.09
2023-05-24T08:45:27.235Z,23.18
2023-05-24T08:46:59.628Z,23.22
2023-05-24T08:48:32.433Z,23.32
2023-05-24T08:50:06.631Z,23.37
2023-05-24T08:51:40.283Z,23.41
2023-05-24T08:53:13.360Z,23.46
2023-05-24T08:54:46.486Z,23.53
2023-05-24T08:56:19.297Z,23.58
2023-05-24T08:57:51.969Z,23.59
2023-05-24T08:59:26.001Z,23.71
2023-05-24T09:00:59.551Z,23.77
2023-05-24T09:02:32.371Z,23.78
2023-05-24T09:04:05.604Z,23.78
2023-05-24T09:05:38.035Z,23.84
2023-05-24T09:07:11.161Z,23.79
2023-05-24T09:08:44.166Z,23.86
2023-05-24T09:10:16.734Z,23.83
2023-05-24T09:11:51.129Z,23.86
2023-05-24T09:13:25.320Z,23.84
2023-05-24T09:14:58.138Z,23.84
2023-05-24T09:16:30.432Z,23.85
2023-05-24T09:18:02.770Z,23.89
2023-05-24T09:19:35.586Z,23.95
2023-05-24T09:21:09.160Z,23.97
2023-05-24T09:22:44.494Z,24.06
2023-05-24T09:24:19.289Z,24.16
2023-05-24T09:25:51.762Z,24.27
2023-05-24T09:27:24.483Z,24.30
2023-05-24T09:28:58.491Z,24.39
2023-05-24T09:30:30.853Z,24.49
2023-05-24T09:32:05.112Z,24.46
2023-05-24T09:33:37.486Z,24.42
2023-05-24T09:35:11.023Z,24.44
2023-05-24T09:36:45.956Z,24.48
2023-05-24T09:39:52.372Z,24.56
2023-05-24T09:41:24.697Z,24.59
2023-05-24T09:43:07.751Z,24.69
2023-05-24T09:44:40.039Z,24.70
2023-05-24T09:46:17.435Z,24.80
2023-05-24T09:47:50.396Z,24.80
2023-05-24T09:49:23.741Z,24.89
2023-05-24T10:00:57.266Z,25.03
2023-05-24T10:10:19.848Z,24.95
2023-05-24T10:11:52.746Z,24.98
2023-05-24T10:13:24.925Z,25.07
2023-05-24T10:14:58.089Z,25.17
2023-05-24T10:16:30.364Z,25.23
2023-05-24T10:18:11.269Z,25.10
2023-05-24T10:19:45.447Z,25.14
2023-05-24T10:21:18.421Z,25.17
2023-05-24T10:23:00.786Z,25.26
2023-05-24T10:24:40.659Z,25.29
2023-05-24T10:26:13.322Z,25.27
2023-05-24T10:27:46.462Z,25.30
2023-05-24T10:29:22.846Z,25.38
2023-05-24T10:31:16.479Z,25.44
2023-05-24T10:32:49.631Z,25.39
2023-05-24T10:34:21.700Z,25.44
2023-05-24T10:35:54.675Z,25.37
2023-05-24T10:37:27.510Z,25.32
2023-05-24T10:39:00.414Z,25.38
2023-05-24T10:40:32.660Z,25.49
2023-05-24T10:42:09.574Z,25.63
2023-05-24T10:44:00.639Z,25.73
2023-05-24T10:45:41.187Z,25.76
2023-05-24T10:47:15.910Z,25.74
2023-05-24T10:49:01.624Z,25.74
2023-05-24T10:50:33.971Z,25.73
2023-05-24T10:52:10.318Z,25.81
2023-05-24T10:53:42.577Z,25.83
2023-05-24T10:55:15.607Z,25.82
2023-05-24T10:56:49.924Z,25.83
2023-05-24T10:58:27.588Z,25.75
2023-05-24T11:05:46.564Z,25.73
2023-05-24T11:07:19.989Z,25.70
2023-05-24T11:08:51.932Z,25.78
2023-05-24T11:10:31.347Z,25.80
2023-05-24T11:12:08.218Z,25.80
2023-05-24T11:33:02.907Z,26.18
2023-05-24T11:34:35.650Z,26.27
2023-05-24T11:36:08.273Z,26.30
2023-05-24T11:39:18.565Z,26.41
2023-05-24T11:48:10.348Z,26.47
2023-05-24T11:51:15.542Z,26.48
2023-05-24T11:52:47.713Z,26.54
2023-05-24T11:54:20.009Z,26.54
2023-05-24T11:55:54.848Z,26.62
2023-05-24T11:57:48.789Z,26.64
2023-05-24T11:59:25.090Z,26.68
2023-05-24T12:00:57.404Z,26.65
2023-05-24T12:02:32.839Z,26.64
2023-05-24T12:04:07.927Z,26.63
2023-05-24T12:05:40.544Z,26.61
2023-05-24T12:07:16.222Z,26.65
2023-05-24T12:08:49.265Z,26.69
2023-05-24T12:10:22.986Z,26.70
2023-05-24T12:11:55.988Z,26.71
2023-05-24T12:13:28.329Z,26.73
2023-05-24T12:15:00.619Z,26.73
2023-05-24T12:16:33.852Z,26.76
2023-05-24T12:18:06.258Z,26.79
2023-05-24T12:19:38.705Z,26.82
2023-05-24T12:21:12.316Z,26.83
2023-05-24T12:22:53.174Z,26.83
2023-05-24T12:24:26.604Z,26.80
2023-05-24T12:26:02.396Z,26.80
2023-05-24T12:27:35.900Z,26.79
2023-05-24T12:29:08.489Z,26.79
2023-05-24T12:30:45.403Z,26.80
2023-05-24T12:32:17.896Z,26.78
2023-05-24T12:33:51.589Z,26.76
2023-05-24T12:35:25.813Z,26.79
2023-05-24T12:36:58.372Z,26.82
2023-05-24T12:38:32.031Z,26.91
2023-05-24T12:40:05.828Z,26.89
2023-05-24T12:41:38.141Z,26.95
2023-05-24T12:43:11.101Z,26.96
2023-05-24T12:44:43.380Z,26.98
2023-05-24T12:46:15.747Z,27.00
2023-05-24T12:47:48.641Z,26.99
2023-05-24T12:49:21.214Z,26.98
2023-05-24T12:50:53.436Z,26.97
2023-05-24T12:52:26.868Z,26.94
2023-05-24T12:53:59.273Z,26.97
2023-05-24T12:55:31.907Z,26.96
2023-05-24T12:57:04.273Z,27.00
2023-05-24T12:58:36.462Z,27.03
2023-05-24T13:00:11.218Z,27.02
2023-05-24T13:01:43.744Z,26.96
2023-05-24T13:03:16.108Z,26.92
2023-05-24T13:04:48.695Z,26.90
2023-05-24T13:06:21.116Z,26.87
2023-05-24T13:07:53.530Z,26.85
2023-05-24T13:09:26.474Z,26.73
2023-05-24T13:10:58.784Z,26.65
2023-05-24T13:12:31.086Z,26.63
2023-05-24T13:14:04.074Z,26.63
2023-05-24T13:15:36.646Z,26.68
2023-05-24T13:17:08.917Z,26.62
2023-05-24T13:18:41.257Z,26.63
2023-05-24T13:20:13.510Z,26.66
2023-05-24T13:21:45.834Z,26.72
2023-05-24T13:23:18.685Z,26.72
2023-05-24T13:24:50.880Z,26.79
2023-05-24T13:26:23.616Z,26.77
2023-05-24T13:27:55.897Z,26.77
2023-05-24T13:29:39.288Z,26.83
2023-05-24T13:31:12.075Z,26.87
2023-05-24T13:32:44.539Z,26.88
2023-05-24T13:34:18.043Z,26.91
2023-05-24T13:35:50.280Z,26.94
2023-05-24T13:37:22.765Z,26.96
2023-05-24T13:39:06.478Z,27.01
2023-05-24T13:40:46.569Z,27.03
2023-05-24T13:42:18.901Z,27.05
2023-05-24T13:43:54.667Z,27.03
2023-05-24T13:45:27.491Z,27.04
2023-05-24T13:46:59.638Z,27.01
2023-05-24T13:48:31.974Z,27.04
2023-05-24T13:50:05.314Z,27.05
2023-05-24T13:51:38.374Z,27.02
2023-05-24T13:53:10.382Z,26.96
2023-05-24T13:54:42.815Z,26.94
2023-05-24T13:56:16.187Z,27.01
2023-05-24T13:57:52.166Z,27.05
2023-05-24T13:59:25.111Z,27.03
2023-05-24T14:00:57.644Z,27.01
2023-05-24T14:02:29.787Z,27.03
2023-05-24T14:04:02.829Z,27.02
2023-05-24T14:05:35.202Z,27.04
2023-05-24T14:07:08.952Z,26.99
2023-05-24T14:08:41.164Z,26.96
2023-05-24T14:10:13.611Z,26.89
2023-05-24T14:11:45.954Z,26.84
2023-05-24T14:14:59.697Z,26.73
2023-05-24T14:16:32.511Z,26.64
2023-05-24T14:18:08.749Z,26.54
2023-05-24T14:19:41.303Z,26.39
2023-05-24T14:21:13.450Z,26.39
2023-05-24T14:22:45.930Z,26.42
2023-05-24T14:24:18.151Z,26.40
2023-05-24T14:25:52.401Z,26.38
2023-05-24T14:27:24.834Z,26.40
2023-05-24T14:28:57.209Z,26.41
2023-05-24T14:30:31.174Z,26.43
2023-05-24T14:32:06.262Z,26.44
2023-05-24T14:33:38.916Z,26.45
2023-05-24T14:35:11.081Z,26.44
2023-05-24T14:36:43.329Z,26.52
2023-05-24T14:38:15.801Z,26.56
2023-05-24T14:39:47.956Z,26.58
2023-05-24T14:41:20.143Z,26.59
2023-05-24T14:42:52.446Z,26.61
2023-05-24T14:44:24.840Z,26.62
2023-05-24T14:45:57.397Z,26.63
2023-05-24T14:47:29.582Z,26.63
2023-05-24T14:49:02.974Z,26.63
2023-05-24T14:50:35.194Z,26.61
2023-05-24T14:52:07.551Z,26.62
2023-05-24T14:53:39.946Z,26.65
2023-05-24T14:55:12.216Z,26.65
2023-05-24T14:56:44.416Z,26.65
2023-05-24T14:58:16.727Z,26.65
2023-05-24T14:59:49.055Z,26.65
2023-05-24T15:01:21.257Z,26.63
2023-05-24T15:02:53.607Z,26.61
2023-05-24T15:04:26.581Z,26.61
2023-05-24T15:05:59.353Z,26.60
2023-05-24T15:07:32.227Z,26.56
2023-05-24T15:09:05.062Z,26.49
2023-05-24T15:10:39.521Z,26.43
2023-05-24T15:12:11.756Z,26.36
2023-05-24T15:13:43.957Z,26.26
2023-05-24T15:15:16.260Z,26.15
2023-05-24T15:16:49.314Z,26.08
2023-05-24T15:18:21.401Z,26.10
2023-05-24T15:19:54.613Z,26.02
2023-05-24T15:21:26.662Z,26.05
2023-05-24T15:22:58.873Z,25.95
2023-05-24T15:24:31.101Z,25.88
2023-05-24T15:26:03.489Z,25.80
2023-05-24T15:27:35.779Z,25.72
2023-05-24T15:29:07.907Z,25.64
2023-05-24T15:30:40.167Z,25.60
2023-05-24T15:32:12.404Z,25.52
2023-05-24T15:33:44.638Z,25.48
2023-05-24T15:35:17.708Z,25.50
2023-05-24T15:36:49.840Z,25.50
2023-05-24T15:38:25.578Z,25.51
2023-05-24T15:39:57.778Z,25.52
2023-05-24T15:41:30.071Z,25.54
2023-05-24T15:43:02.554Z,25.55
2023-05-24T15:44:34.730Z,25.57
2023-05-24T15:46:07.183Z,25.56
2023-05-24T15:47:40.692Z,25.60
2023-05-24T15:49:12.878Z,25.60
2023-05-24T15:51:13.816Z,25.61
2023-05-24T15:52:37.572Z,25.61
2023-05-24T15:54:09.744Z,25.61
2023-05-24T15:55:42.007Z,25.60
2023-05-24T15:57:14.214Z,25.58
2023-05-24T15:58:46.774Z,25.61
2023-05-24T16:00:19.163Z,25.61
2023-05-24T16:01:51.953Z,25.59
2023-05-24T16:03:24.486Z,25.58
2023-05-24T16:04:57.796Z,25.58
2023-05-24T16:06:30.017Z,25.58
2023-05-24T16:08:03.042Z,25.57
2023-05-24T16:09:35.304Z,25.59
2023-05-24T16:11:08.818Z,25.59
2023-05-24T16:12:41.073Z,25.59
2023-05-24T16:14:13.288Z,25.60
2023-05-24T16:15:51.974Z,25.61
2023-05-24T16:17:24.159Z,25.62
2023-05-24T16:18:56.383Z,25.64
2023-05-24T16:20:28.605Z,25.68
2023-05-24T16:22:00.960Z,25.72
2023-05-24T16:23:33.335Z,25.76
2023-05-24T16:25:06.173Z,25.84
2023-05-24T16:26:38.381Z,25.88
2023-05-24T16:28:10.642Z,25.99
2023-05-24T16:29:43.308Z,26.16
2023-05-24T16:31:16.526Z,26.40
2023-05-24T16:32:48.817Z,26.62
2023-05-24T16:34:22.050Z,26.79
2023-05-24T16:36:02.122Z,26.92
2023-05-24T16:37:35.675Z,26.97
2023-05-24T16:39:07.991Z,27.03
2023-05-24T16:40:42.301Z,27.04
2023-05-24T16:42:14.676Z,27.08
2023-05-24T16:43:47.185Z,27.07
2023-05-24T16:45:19.951Z,27.06
2023-05-24T16:48:28.982Z,26.85
2023-05-24T16:50:01.446Z,26.67
2023-05-24T16:51:33.673Z,26.50
2023-05-24T16:53:06.699Z,26.34
2023-05-24T16:54:39.045Z,26.18
2023-05-24T16:56:11.231Z,26.02
2023-05-24T16:57:43.569Z,25.83
2023-05-24T16:59:17.456Z,25.63
2023-05-24T17:00:49.806Z,25.45
2023-05-24T17:02:22.055Z,25.31
2023-05-24T17:03:54.376Z,25.14
2023-05-24T17:05:26.660Z,25.00
2023-05-24T17:06:58.848Z,24.85
2023-05-24T17:08:33.606Z,24.74
2023-05-24T17:10:06.611Z,24.57
2023-05-24T17:11:38.836Z,24.45
2023-05-24T17:13:11.006Z,24.33
2023-05-24T17:14:43.557Z,24.23
2023-05-24T17:16:16.019Z,24.10
2023-05-24T17:17:48.768Z,23.99
2023-05-24T17:19:21.404Z,23.91
2023-05-24T17:21:04.133Z,23.86
2023-05-24T17:22:36.323Z,23.75
2023-05-24T17:24:08.611Z,23.74
2023-05-24T17:25:41.330Z,23.67
2023-05-24T17:27:13.595Z,23.56
2023-05-24T17:28:46.489Z,23.51
2023-05-24T17:30:20.321Z,23.44
2023-05-24T17:31:52.700Z,23.34
2023-05-24T17:33:26.707Z,23.28
2023-05-24T17:34:58.958Z,23.15
2023-05-24T17:36:34.053Z,23.08
2023-05-24T17:38:06.201Z,23.03
2023-05-24T17:39:39.347Z,22.99
2023-05-24T17:41:11.403Z,22.96
2023-05-24T17:42:43.713Z,22.80
2023-05-24T17:44:15.935Z,22.70
2023-05-24T17:45:48.229Z,22.60
2023-05-24T17:47:20.917Z,22.49
2023-05-24T17:48:53.281Z,22.35
2023-05-24T17:50:25.679Z,22.21
2023-05-24T17:52:00.837Z,22.10
2023-05-24T17:53:35.473Z,21.99
2023-05-24T17:55:08.866Z,21.89
2023-05-24T17:56:41.045Z,21.84
2023-05-24T17:58:13.243Z,21.70
2023-05-24T17:59:45.379Z,21.58
2023-05-24T18:01:17.994Z,21.47
2023-05-24T18:02:50.308Z,21.39
2023-05-24T18:04:22.549Z,21.30
2023-05-24T18:05:54.790Z,21.18
2023-05-24T18:07:28.830Z,21.02
2023-05-24T18:09:01.343Z,20.85
2023-05-24T18:10:33.617Z,20.73
2023-05-24T18:12:06.169Z,20.64
2023-05-24T18:13:39.645Z,20.56
2023-05-24T18:15:12.078Z,20.54
2023-05-24T18:22:11.135Z,20.37
2023-05-24T18:23:46.439Z,20.32
2023-05-24T18:25:18.710Z,20.24
2023-05-24T18:26:50.882Z,20.14
2023-05-24T18:28:23.140Z,20.02
2023-05-24T18:29:55.346Z,19.97
2023-05-24T18:31:27.544Z,19.95
2023-05-24T18:34:34.942Z,19.96
2023-05-24T18:36:07.512Z,19.98
2023-05-24T18:37:39.723Z,19.96
2023-05-24T18:39:11.944Z,19.87
2023-05-24T18:40:44.309Z,19.80
2023-05-24T18:42:16.644Z,19.77
2023-05-24T18:43:51.116Z,19.76
2023-05-24T18:45:23.485Z,19.70
2023-05-24T18:46:57.002Z,19.65
2023-05-24T18:48:29.381Z,19.61
2023-05-24T18:50:01.594Z,19.53
2023-05-24T18:51:33.916Z,19.45
2023-05-24T18:53:06.326Z,19.36
2023-05-24T18:54:38.726Z,19.29
2023-05-24T18:56:11.011Z,19.16
2023-05-24T18:57:43.240Z,19.13
2023-05-24T18:59:17.129Z,19.12
2023-05-24T19:00:50.960Z,19.05
2023-05-24T19:02:23.222Z,19.00
2023-05-24T19:03:55.448Z,18.94
2023-05-24T19:05:27.661Z,18.91
2023-05-24T19:06:59.915Z,18.88
2023-05-24T19:08:32.235Z,18.83
2023-05-24T19:10:05.125Z,18.78
2023-05-24T19:11:37.517Z,18.73
2023-05-24T19:13:09.774Z,18.68
2023-05-24T19:14:42.070Z,18.63
2023-05-24T19:16:17.990Z,18.59
2023-05-24T19:17:50.345Z,18.55
2023-05-24T19:19:22.714Z,18.54
2023-05-24T19:20:54.914Z,18.53
2023-05-24T19:22:28.141Z,18.50
2023-05-24T19:24:00.480Z,18.50
2023-05-24T19:25:32.806Z,18.49
2023-05-24T19:27:05.105Z,18.48
2023-05-24T19:28:40.698Z,18.45
2023-05-24T19:30:15.213Z,18.45
2023-05-24T19:31:49.422Z,18.42
2023-05-24T19:33:21.687Z,18.40
2023-05-24T19:34:53.850Z,18.39
2023-05-24T19:36:26.053Z,18.37
2023-05-24T19:37:58.266Z,18.37
2023-05-24T19:39:30.531Z,18.35
2023-05-24T19:41:02.674Z,18.34
2023-05-24T19:42:35.546Z,18.32
2023-05-24T19:44:07.724Z,18.33
2023-05-24T19:45:39.884Z,18.31
2023-05-24T19:47:12.028Z,18.29
2023-05-24T19:48:44.464Z,18.31
2023-05-24T19:50:17.000Z,18.31
2023-05-24T19:51:49.245Z,18.28
2023-05-24T19:53:21.584Z,18.27
2023-05-24T19:56:25.739Z,18.25
2023-05-24T19:57:58.048Z,18.25
2023-05-24T19:59:30.265Z,18.24
2023-05-24T20:01:02.473Z,18.25
2023-05-24T20:02:36.546Z,18.22
2023-05-24T20:04:09.024Z,18.18
2023-05-24T20:05:41.654Z,18.14
2023-05-24T20:07:15.089Z,18.07
2023-05-24T20:08:47.171Z,18.05
2023-05-24T20:10:19.632Z,17.96
2023-05-24T20:11:51.834Z,17.91
2023-05-24T20:13:23.973Z,17.94
2023-05-24T20:14:56.032Z,17.93
2023-05-24T20:16:28.781Z,17.94
2023-05-24T20:18:01.070Z,17.99
2023-05-24T20:19:33.333Z,18.03
2023-05-24T20:21:05.460Z,18.04
2023-05-24T20:22:37.733Z,18.05
2023-05-24T20:24:09.984Z,18.09
2023-05-24T20:25:42.275Z,18.11
2023-05-24T20:27:14.564Z,18.15
2023-05-24T20:28:47.434Z,18.19
2023-05-24T20:30:19.769Z,18.25
2023-05-24T20:31:51.999Z,18.27
2023-05-24T20:33:24.280Z,18.30
2023-05-24T20:34:56.567Z,18.33
2023-05-24T20:36:28.833Z,18.32
2023-05-24T20:38:01.203Z,18.30
2023-05-24T20:39:33.886Z,18.30
2023-05-24T20:41:06.219Z,18.27
2023-05-24T20:42:38.377Z,18.23
2023-05-24T20:44:10.515Z,18.20
2023-05-24T20:45:43.223Z,18.17
2023-05-24T20:47:17.121Z,18.14
2023-05-24T20:48:49.286Z,18.13
2023-05-24T20:50:21.539Z,18.09
2023-05-24T20:51:53.796Z,18.05
2023-05-24T20:53:26.148Z,18.02
2023-05-24T20:54:58.288Z,17.96
2023-05-24T20:56:30.447Z,17.92
2023-05-24T20:58:02.634Z,17.89
2023-05-24T20:59:34.843Z,17.83
2023-05-24T21:01:08.791Z,17.83
2023-05-24T21:02:41.510Z,17.83
2023-05-24T21:04:14.570Z,17.82
2023-05-24T21:05:46.755Z,17.81
2023-05-24T21:07:18.885Z,17.79
2023-05-24T21:08:51.419Z,17.78
2023-05-24T21:10:23.806Z,17.78
2023-05-24T21:11:56.059Z,17.77
2023-05-24T21:13:28.621Z,17.73
2023-05-24T21:15:00.742Z,17.72
2023-05-24T21:16:33.316Z,17.71
2023-05-24T21:18:05.640Z,17.72
2023-05-24T21:19:37.840Z,17.70
2023-05-24T21:21:11.392Z,17.67
2023-05-24T21:22:43.553Z,17.67
2023-05-24T21:24:16.663Z,17.69
2023-05-24T21:25:48.755Z,17.64
2023-05-24T21:27:22.158Z,17.65
2023-05-24T21:28:54.471Z,17.64
2023-05-24T21:30:26.674Z,17.64
2023-05-24T21:31:58.830Z,17.64
2023-05-24T21:33:31.127Z,17.54
2023-05-24T21:35:03.412Z,17.46